Catàleg de serveis del Meteocat
Campanya meteocatpedra

Dades de l'estació automàtica Sant Martí de Riucorb

?
?
Resum diari 21:30 TU
Dades diàries de l'estació meteorològica
Temperatura mitjana 24.0 °C
Temperatura màxima 30.8 °C 16:36 TU
Temperatura mínima 18.2 °C 2:31 TU
Humitat relativa mitjana 61%
Precipitació acumulada 0.0 mm
Ratxa màxima del vent (2 m) 27.0 km/h - 244º 13:16 TU
Irradiació solar global 28.6 MJ/m2

El tram horari està expressat en Temps Universal (TU). Cal sumar una hora en horari d'hivern i dues en horari d'estiu per passar a l'hora oficial.

Sant Martí de Riucorb

Metadades estació meteorol´gica
Municipi Sant Martí de Riucorb
Comarca Urgell
Altitud 413 m
Data alta 05.02.2002
Estat actual Operativa
Dades de període
Període
TU
TM
°C
TX
°C
TN
°C
HRM
%
PPT
mm
VVM (2 m)
km/h
DVM (2 m)
graus
VVX (2 m)
km/h
RS
W/m2
00:00 - 00:30 19.4 19.6 19.1 78 0.0 1.8 136 5.0 0
00:30 - 01:00 19.5 19.7 19.1 77 0.0 2.2 150 4.3 0
01:00 - 01:30 19.2 19.2 19.0 78 0.0 2.9 162 5.4 0
01:30 - 02:00 18.8 19.1 18.6 79 0.0 2.5 149 5.4 0
02:00 - 02:30 18.8 19.0 18.3 78 0.0 3.6 142 6.1 0
02:30 - 03:00 18.5 19.0 18.2 79 0.0 3.6 148 5.8 0
03:00 - 03:30 19.3 19.4 19.0 77 0.0 2.2 185 4.3 0
03:30 - 04:00 19.5 19.7 19.2 78 0.0 4.0 223 10.4 0
04:00 - 04:30 19.3 19.5 19.2 79 0.0 4.7 243 8.3 0
04:30 - 05:00 19.5 19.7 19.2 78 0.0 6.8 240 16.9 5
05:00 - 05:30 19.4 19.6 19.1 76 0.0 7.6 260 17.6 28
05:30 - 06:00 19.0 19.1 18.9 78 0.0 4.0 285 11.5 71
06:00 - 06:30 19.3 19.6 19.0 78 0.0 4.3 300 10.4 180
06:30 - 07:00 20.0 20.3 19.6 76 0.0 5.8 293 15.8 267
07:00 - 07:30 20.6 21.0 20.3 70 0.0 9.4 273 16.9 378
07:30 - 08:00 21.2 21.7 20.9 68 0.0 9.7 262 18.0 480
08:00 - 08:30 21.9 22.8 21.4 65 0.0 9.4 262 18.0 574
08:30 - 09:00 22.7 23.2 22.1 62 0.0 10.8 256 21.2 656
09:00 - 09:30 23.7 24.3 23.0 58 0.0 10.4 264 21.2 729
09:30 - 10:00 24.4 24.9 23.9 56 0.0 9.4 270 18.0 794
10:00 - 10:30 25.1 26.1 24.4 54 0.0 9.7 273 21.2 842
10:30 - 11:00 25.8 26.7 25.1 52 0.0 10.1 269 21.2 883
11:00 - 11:30 26.6 27.0 26.2 49 0.0 10.4 276 22.0 902
11:30 - 12:00 27.3 28.0 26.7 48 0.0 9.4 278 19.8 922
12:00 - 12:30 27.6 28.1 27.3 47 0.0 10.1 270 20.9 931
12:30 - 13:00 28.3 29.0 27.7 45 0.0 10.1 272 19.8 920
13:00 - 13:30 28.5 29.0 28.1 43 0.0 9.7 267 27.0 899
13:30 - 14:00 29.1 29.7 28.8 41 0.0 10.1 275 22.7 863
14:00 - 14:30 29.7 30.3 29.2 39 0.0 10.1 284 23.0 804
14:30 - 15:00 29.9 30.2 29.6 38 0.0 9.7 271 19.8 759
15:00 - 15:30 30.0 30.6 29.6 37 0.0 9.7 267 19.4 616
15:30 - 16:00 30.2 30.7 29.8 35 0.0 8.6 273 16.9 583
16:00 - 16:30 30.4 30.6 30.0 34 0.0 9.7 264 18.7 550
16:30 - 17:00 30.4 30.8 30.1 34 0.0 8.6 257 20.2 435
17:00 - 17:30 30.4 30.5 29.9 36 0.0 7.2 245 15.8 339
17:30 - 18:00 28.8 29.7 28.1 46 0.0 8.6 162 20.5 245
18:00 - 18:30 27.5 28.0 26.8 50 0.0 8.3 151 16.9 153
18:30 - 19:00 26.2 26.8 25.6 53 0.0 9.7 150 23.0 74
19:00 - 19:30 25.0 25.6 24.4 58 0.0 9.0 144 18.7 15
19:30 - 20:00 24.0 24.4 23.6 65 0.0 10.1 151 20.9 1
20:00 - 20:30 23.4 23.6 23.0 71 0.0 10.1 152 19.4 0
20:30 - 21:00 22.8 23.0 22.6 76 0.0 10.1 154 20.5 0
21:00 - 21:30 22.5 22.6 22.4 79 0.0 11.2 155 20.9 0
21:30 - 22:00 22.3 22.4 22.2 80 0.0 9.7 153 19.8 0

Les dades en taronja només han passat un control de qualitat automàtic. Resta pendent la seva validació definitiva.